sensor_id;sensor_type;location;lat;lon;timestamp;P1;durP1;ratioP1;P2;durP2;ratioP2
41233;SDS011;26968;42.686;23.352;2023-04-15T00:01:54;7.85;;;2.78;;
41233;SDS011;26968;42.686;23.352;2023-04-15T00:04:22;10.38;;;2.78;;
41233;SDS011;26968;42.686;23.352;2023-04-15T00:06:51;7.00;;;2.88;;
41233;SDS011;26968;42.686;23.352;2023-04-15T00:09:17;7.95;;;3.40;;
41233;SDS011;26968;42.686;23.352;2023-04-15T00:11:43;17.73;;;8.15;;
41233;SDS011;26968;42.686;23.352;2023-04-15T00:14:10;16.48;;;7.53;;
41233;SDS011;26968;42.686;23.352;2023-04-15T00:16:37;21.73;;;8.27;;
41233;SDS011;26968;42.686;23.352;2023-04-15T00:19:02;15.18;;;8.18;;
41233;SDS011;26968;42.686;23.352;2023-04-15T00:21:27;15.32;;;8.15;;
41233;SDS011;26968;42.686;23.352;2023-04-15T00:23:53;17.70;;;8.30;;
41233;SDS011;26968;42.686;23.352;2023-04-15T00:26:19;19.00;;;8.60;;
41233;SDS011;26968;42.686;23.352;2023-04-15T00:28:45;15.23;;;8.45;;
41233;SDS011;26968;42.686;23.352;2023-04-15T00:31:11;14.82;;;7.60;;
41233;SDS011;26968;42.686;23.352;2023-04-15T00:33:36;14.88;;;7.95;;
41233;SDS011;26968;42.686;23.352;2023-04-15T00:36:02;15.43;;;7.90;;
41233;SDS011;26968;42.686;23.352;2023-04-15T00:38:28;14.80;;;7.45;;
41233;SDS011;26968;42.686;23.352;2023-04-15T00:40:54;18.02;;;7.38;;
41233;SDS011;26968;42.686;23.352;2023-04-15T00:43:20;13.43;;;6.43;;
41233;SDS011;26968;42.686;23.352;2023-04-15T00:45:46;15.63;;;6.75;;
41233;SDS011;26968;42.686;23.352;2023-04-15T00:48:11;12.18;;;6.30;;
41233;SDS011;26968;42.686;23.352;2023-04-15T00:50:37;13.15;;;6.03;;
41233;SDS011;26968;42.686;23.352;2023-04-15T00:53:02;16.05;;;6.45;;
41233;SDS011;26968;42.686;23.352;2023-04-15T00:55:28;15.43;;;6.78;;
41233;SDS011;26968;42.686;23.352;2023-04-15T00:57:53;16.13;;;5.93;;
41233;SDS011;26968;42.686;23.352;2023-04-15T01:00:20;17.70;;;6.00;;
41233;SDS011;26968;42.686;23.352;2023-04-15T01:02:45;13.60;;;5.82;;
41233;SDS011;26968;42.686;23.352;2023-04-15T01:05:11;11.23;;;5.25;;
41233;SDS011;26968;42.686;23.352;2023-04-15T01:07:36;10.60;;;4.15;;
41233;SDS011;26968;42.686;23.352;2023-04-15T01:10:02;7.38;;;4.07;;
41233;SDS011;26968;42.686;23.352;2023-04-15T01:12:28;7.50;;;3.83;;
41233;SDS011;26968;42.686;23.352;2023-04-15T01:14:57;9.70;;;3.47;;
41233;SDS011;26968;42.686;23.352;2023-04-15T01:17:23;7.68;;;3.10;;
41233;SDS011;26968;42.686;23.352;2023-04-15T01:19:50;6.97;;;3.47;;
41233;SDS011;26968;42.686;23.352;2023-04-15T01:22:16;13.57;;;3.65;;
41233;SDS011;26968;42.686;23.352;2023-04-15T01:24:43;6.82;;;3.72;;
41233;SDS011;26968;42.686;23.352;2023-04-15T01:27:19;8.77;;;3.85;;
41233;SDS011;26968;42.686;23.352;2023-04-15T01:29:45;8.10;;;3.50;;
41233;SDS011;26968;42.686;23.352;2023-04-15T01:32:11;10.73;;;4.20;;
41233;SDS011;26968;42.686;23.352;2023-04-15T01:34:36;7.75;;;3.67;;
41233;SDS011;26968;42.686;23.352;2023-04-15T01:37:02;11.80;;;4.05;;
41233;SDS011;26968;42.686;23.352;2023-04-15T01:39:27;9.68;;;4.43;;
41233;SDS011;26968;42.686;23.352;2023-04-15T01:41:53;9.50;;;4.47;;
41233;SDS011;26968;42.686;23.352;2023-04-15T01:44:18;9.23;;;4.13;;
41233;SDS011;26968;42.686;23.352;2023-04-15T01:46:43;11.07;;;4.60;;
41233;SDS011;26968;42.686;23.352;2023-04-15T01:49:09;12.13;;;4.22;;
41233;SDS011;26968;42.686;23.352;2023-04-15T01:51:34;10.52;;;4.22;;
41233;SDS011;26968;42.686;23.352;2023-04-15T01:54:00;8.80;;;3.70;;
41233;SDS011;26968;42.686;23.352;2023-04-15T01:56:26;7.40;;;3.55;;
41233;SDS011;26968;42.686;23.352;2023-04-15T01:58:51;8.68;;;4.35;;
41233;SDS011;26968;42.686;23.352;2023-04-15T02:01:17;11.25;;;4.45;;
41233;SDS011;26968;42.686;23.352;2023-04-15T02:03:44;10.10;;;4.30;;
41233;SDS011;26968;42.686;23.352;2023-04-15T02:06:10;9.82;;;3.95;;
41233;SDS011;26968;42.686;23.352;2023-04-15T02:08:36;11.68;;;4.07;;
41233;SDS011;26968;42.686;23.352;2023-04-15T02:11:01;12.75;;;4.45;;
41233;SDS011;26968;42.686;23.352;2023-04-15T02:13:27;8.65;;;4.20;;
41233;SDS011;26968;42.686;23.352;2023-04-15T02:15:53;9.43;;;4.78;;
41233;SDS011;26968;42.686;23.352;2023-04-15T02:18:19;13.57;;;5.07;;
41233;SDS011;26968;42.686;23.352;2023-04-15T02:20:45;10.63;;;5.00;;
41233;SDS011;26968;42.686;23.352;2023-04-15T02:23:11;12.60;;;4.93;;
41233;SDS011;26968;42.686;23.352;2023-04-15T02:25:37;7.10;;;4.30;;
41233;SDS011;26968;42.686;23.352;2023-04-15T02:28:05;12.70;;;5.55;;
41233;SDS011;26968;42.686;23.352;2023-04-15T02:30:31;11.50;;;5.63;;
41233;SDS011;26968;42.686;23.352;2023-04-15T02:32:59;19.27;;;6.28;;
41233;SDS011;26968;42.686;23.352;2023-04-15T02:35:25;19.00;;;8.10;;
41233;SDS011;26968;42.686;23.352;2023-04-15T02:37:51;14.40;;;7.75;;
41233;SDS011;26968;42.686;23.352;2023-04-15T02:40:17;20.27;;;7.45;;
41233;SDS011;26968;42.686;23.352;2023-04-15T02:42:42;16.98;;;7.05;;
41233;SDS011;26968;42.686;23.352;2023-04-15T02:45:09;15.80;;;7.00;;
41233;SDS011;26968;42.686;23.352;2023-04-15T02:47:36;14.80;;;6.78;;
41233;SDS011;26968;42.686;23.352;2023-04-15T02:50:04;14.27;;;7.88;;
41233;SDS011;26968;42.686;23.352;2023-04-15T02:52:29;12.77;;;6.75;;
41233;SDS011;26968;42.686;23.352;2023-04-15T02:54:55;14.88;;;7.35;;
41233;SDS011;26968;42.686;23.352;2023-04-15T02:57:25;13.10;;;7.22;;
41233;SDS011;26968;42.686;23.352;2023-04-15T02:59:52;15.48;;;6.80;;
41233;SDS011;26968;42.686;23.352;2023-04-15T03:02:17;12.15;;;6.15;;
41233;SDS011;26968;42.686;23.352;2023-04-15T03:04:42;12.70;;;6.60;;
41233;SDS011;26968;42.686;23.352;2023-04-15T03:07:08;16.08;;;6.43;;
41233;SDS011;26968;42.686;23.352;2023-04-15T03:09:33;14.25;;;6.10;;
41233;SDS011;26968;42.686;23.352;2023-04-15T03:11:59;8.93;;;5.15;;
41233;SDS011;26968;42.686;23.352;2023-04-15T03:14:24;12.85;;;5.82;;
41233;SDS011;26968;42.686;23.352;2023-04-15T03:16:50;12.18;;;5.47;;
41233;SDS011;26968;42.686;23.352;2023-04-15T03:19:16;13.40;;;5.35;;
41233;SDS011;26968;42.686;23.352;2023-04-15T03:21:41;8.70;;;4.65;;
41233;SDS011;26968;42.686;23.352;2023-04-15T03:24:06;9.98;;;5.75;;
41233;SDS011;26968;42.686;23.352;2023-04-15T03:26:32;11.25;;;5.68;;
41233;SDS011;26968;42.686;23.352;2023-04-15T03:28:57;12.40;;;5.15;;
41233;SDS011;26968;42.686;23.352;2023-04-15T03:31:23;16.05;;;5.22;;
41233;SDS011;26968;42.686;23.352;2023-04-15T03:33:48;10.38;;;5.32;;
41233;SDS011;26968;42.686;23.352;2023-04-15T03:36:14;9.00;;;5.00;;
41233;SDS011;26968;42.686;23.352;2023-04-15T03:38:40;18.90;;;5.93;;
41233;SDS011;26968;42.686;23.352;2023-04-15T03:41:06;10.98;;;5.60;;
41233;SDS011;26968;42.686;23.352;2023-04-15T03:43:32;10.43;;;4.88;;
41233;SDS011;26968;42.686;23.352;2023-04-15T03:45:57;11.10;;;5.40;;
41233;SDS011;26968;42.686;23.352;2023-04-15T03:48:22;12.43;;;6.10;;
41233;SDS011;26968;42.686;23.352;2023-04-15T03:50:48;13.45;;;6.68;;
41233;SDS011;26968;42.686;23.352;2023-04-15T03:53:14;16.17;;;5.95;;
41233;SDS011;26968;42.686;23.352;2023-04-15T03:55:40;9.95;;;5.03;;
41233;SDS011;26968;42.686;23.352;2023-04-15T03:58:05;9.82;;;5.22;;
41233;SDS011;26968;42.686;23.352;2023-04-15T04:00:31;10.20;;;5.78;;
41233;SDS011;26968;42.686;23.352;2023-04-15T04:02:56;11.88;;;6.20;;
41233;SDS011;26968;42.686;23.352;2023-04-15T04:05:22;12.48;;;5.85;;
41233;SDS011;26968;42.686;23.352;2023-04-15T04:07:47;14.50;;;6.75;;
41233;SDS011;26968;42.686;23.352;2023-04-15T04:10:13;13.45;;;6.15;;
41233;SDS011;26968;42.686;23.352;2023-04-15T04:12:38;11.57;;;5.55;;
41233;SDS011;26968;42.686;23.352;2023-04-15T04:15:04;13.75;;;5.70;;
41233;SDS011;26968;42.686;23.352;2023-04-15T04:17:30;16.63;;;5.40;;
41233;SDS011;26968;42.686;23.352;2023-04-15T04:19:56;14.25;;;6.05;;
41233;SDS011;26968;42.686;23.352;2023-04-15T04:22:22;11.45;;;5.88;;
41233;SDS011;26968;42.686;23.352;2023-04-15T04:24:50;12.70;;;6.43;;
41233;SDS011;26968;42.686;23.352;2023-04-15T04:27:16;10.98;;;5.10;;
41233;SDS011;26968;42.686;23.352;2023-04-15T04:29:41;10.35;;;6.30;;
41233;SDS011;26968;42.686;23.352;2023-04-15T04:32:07;14.27;;;6.03;;
41233;SDS011;26968;42.686;23.352;2023-04-15T04:34:32;15.50;;;6.22;;
41233;SDS011;26968;42.686;23.352;2023-04-15T04:36:58;13.85;;;5.93;;
41233;SDS011;26968;42.686;23.352;2023-04-15T04:39:23;10.68;;;6.15;;
41233;SDS011;26968;42.686;23.352;2023-04-15T04:41:49;19.27;;;7.68;;
41233;SDS011;26968;42.686;23.352;2023-04-15T04:44:16;12.93;;;6.75;;
41233;SDS011;26968;42.686;23.352;2023-04-15T04:46:42;13.18;;;5.68;;
41233;SDS011;26968;42.686;23.352;2023-04-15T04:49:07;19.05;;;7.15;;
41233;SDS011;26968;42.686;23.352;2023-04-15T04:51:33;15.65;;;6.75;;
41233;SDS011;26968;42.686;23.352;2023-04-15T04:53:58;17.17;;;7.35;;
41233;SDS011;26968;42.686;23.352;2023-04-15T04:56:24;16.55;;;7.50;;
41233;SDS011;26968;42.686;23.352;2023-04-15T04:58:49;16.80;;;8.25;;
41233;SDS011;26968;42.686;23.352;2023-04-15T05:01:15;20.70;;;8.60;;
41233;SDS011;26968;42.686;23.352;2023-04-15T05:03:41;22.17;;;8.85;;
41233;SDS011;26968;42.686;23.352;2023-04-15T05:06:06;16.02;;;8.15;;
41233;SDS011;26968;42.686;23.352;2023-04-15T05:08:32;32.08;;;9.52;;
41233;SDS011;26968;42.686;23.352;2023-04-15T05:10:58;20.30;;;9.40;;
41233;SDS011;26968;42.686;23.352;2023-04-15T05:13:23;22.73;;;9.45;;
41233;SDS011;26968;42.686;23.352;2023-04-15T05:15:49;17.17;;;8.18;;
41233;SDS011;26968;42.686;23.352;2023-04-15T05:18:15;23.70;;;9.57;;
41233;SDS011;26968;42.686;23.352;2023-04-15T05:20:41;17.15;;;8.10;;
41233;SDS011;26968;42.686;23.352;2023-04-15T05:23:06;17.42;;;6.97;;
41233;SDS011;26968;42.686;23.352;2023-04-15T05:25:31;17.45;;;6.20;;
41233;SDS011;26968;42.686;23.352;2023-04-15T05:27:57;19.48;;;8.15;;
41233;SDS011;26968;42.686;23.352;2023-04-15T05:30:23;20.35;;;7.57;;
41233;SDS011;26968;42.686;23.352;2023-04-15T05:32:48;18.40;;;6.55;;
41233;SDS011;26968;42.686;23.352;2023-04-15T05:35:14;19.98;;;7.18;;
41233;SDS011;26968;42.686;23.352;2023-04-15T05:37:39;10.77;;;5.63;;
41233;SDS011;26968;42.686;23.352;2023-04-15T05:40:05;15.27;;;6.78;;
41233;SDS011;26968;42.686;23.352;2023-04-15T05:42:30;17.05;;;6.85;;
41233;SDS011;26968;42.686;23.352;2023-04-15T05:44:56;12.00;;;6.82;;
41233;SDS011;26968;42.686;23.352;2023-04-15T05:47:22;15.82;;;6.68;;
41233;SDS011;26968;42.686;23.352;2023-04-15T05:49:47;14.48;;;6.88;;
41233;SDS011;26968;42.686;23.352;2023-04-15T05:52:13;19.88;;;6.93;;
41233;SDS011;26968;42.686;23.352;2023-04-15T05:54:38;16.67;;;7.88;;
41233;SDS011;26968;42.686;23.352;2023-04-15T05:57:04;19.17;;;7.00;;
41233;SDS011;26968;42.686;23.352;2023-04-15T05:59:29;20.15;;;6.32;;
41233;SDS011;26968;42.686;23.352;2023-04-15T06:01:55;16.40;;;7.32;;
41233;SDS011;26968;42.686;23.352;2023-04-15T06:04:20;12.52;;;6.68;;
41233;SDS011;26968;42.686;23.352;2023-04-15T06:06:46;23.33;;;7.55;;
41233;SDS011;26968;42.686;23.352;2023-04-15T06:09:12;13.18;;;7.43;;
41233;SDS011;26968;42.686;23.352;2023-04-15T06:11:37;13.90;;;6.88;;
41233;SDS011;26968;42.686;23.352;2023-04-15T06:14:02;15.98;;;7.53;;
41233;SDS011;26968;42.686;23.352;2023-04-15T06:16:28;17.33;;;7.47;;
41233;SDS011;26968;42.686;23.352;2023-04-15T06:18:53;14.82;;;6.95;;
41233;SDS011;26968;42.686;23.352;2023-04-15T06:21:19;14.07;;;7.43;;
41233;SDS011;26968;42.686;23.352;2023-04-15T06:23:44;16.63;;;7.95;;
41233;SDS011;26968;42.686;23.352;2023-04-15T06:26:10;13.88;;;6.57;;
41233;SDS011;26968;42.686;23.352;2023-04-15T06:28:35;13.60;;;7.05;;
41233;SDS011;26968;42.686;23.352;2023-04-15T06:31:01;12.70;;;7.18;;
41233;SDS011;26968;42.686;23.352;2023-04-15T06:33:27;16.08;;;6.93;;
41233;SDS011;26968;42.686;23.352;2023-04-15T06:35:53;19.83;;;6.55;;
41233;SDS011;26968;42.686;23.352;2023-04-15T06:38:18;13.48;;;5.97;;
41233;SDS011;26968;42.686;23.352;2023-04-15T06:40:44;17.98;;;7.07;;
41233;SDS011;26968;42.686;23.352;2023-04-15T06:43:10;14.30;;;7.25;;
41233;SDS011;26968;42.686;23.352;2023-04-15T06:45:36;11.75;;;6.50;;
41233;SDS011;26968;42.686;23.352;2023-04-15T06:48:02;9.98;;;5.47;;
41233;SDS011;26968;42.686;23.352;2023-04-15T06:50:28;12.13;;;5.28;;
41233;SDS011;26968;42.686;23.352;2023-04-15T06:52:54;13.07;;;5.40;;
41233;SDS011;26968;42.686;23.352;2023-04-15T06:55:20;11.85;;;5.28;;
41233;SDS011;26968;42.686;23.352;2023-04-15T06:57:45;15.43;;;5.03;;
41233;SDS011;26968;42.686;23.352;2023-04-15T07:00:11;17.40;;;5.35;;
41233;SDS011;26968;42.686;23.352;2023-04-15T07:02:36;13.90;;;5.72;;
41233;SDS011;26968;42.686;23.352;2023-04-15T07:05:02;10.93;;;5.80;;
41233;SDS011;26968;42.686;23.352;2023-04-15T07:07:29;10.68;;;5.70;;
41233;SDS011;26968;42.686;23.352;2023-04-15T07:09:54;15.23;;;5.47;;
41233;SDS011;26968;42.686;23.352;2023-04-15T07:12:20;13.70;;;5.30;;
41233;SDS011;26968;42.686;23.352;2023-04-15T07:14:45;13.93;;;5.95;;
41233;SDS011;26968;42.686;23.352;2023-04-15T07:17:11;17.77;;;5.75;;
41233;SDS011;26968;42.686;23.352;2023-04-15T07:19:37;14.23;;;5.55;;
41233;SDS011;26968;42.686;23.352;2023-04-15T07:22:02;22.27;;;6.13;;
41233;SDS011;26968;42.686;23.352;2023-04-15T07:24:28;12.95;;;5.38;;
41233;SDS011;26968;42.686;23.352;2023-04-15T07:26:53;14.40;;;5.82;;
41233;SDS011;26968;42.686;23.352;2023-04-15T07:29:21;13.50;;;5.50;;
41233;SDS011;26968;42.686;23.352;2023-04-15T07:31:47;11.52;;;6.00;;
41233;SDS011;26968;42.686;23.352;2023-04-15T07:34:12;14.73;;;5.10;;
41233;SDS011;26968;42.686;23.352;2023-04-15T07:36:38;16.38;;;6.07;;
41233;SDS011;26968;42.686;23.352;2023-04-15T07:39:04;10.80;;;5.60;;
41233;SDS011;26968;42.686;23.352;2023-04-15T07:41:30;12.32;;;5.40;;
41233;SDS011;26968;42.686;23.352;2023-04-15T07:43:55;15.43;;;5.72;;
41233;SDS011;26968;42.686;23.352;2023-04-15T07:46:21;15.20;;;5.93;;
41233;SDS011;26968;42.686;23.352;2023-04-15T07:48:48;13.52;;;5.72;;
41233;SDS011;26968;42.686;23.352;2023-04-15T07:51:14;11.63;;;5.53;;
41233;SDS011;26968;42.686;23.352;2023-04-15T07:53:41;17.10;;;5.38;;
41233;SDS011;26968;42.686;23.352;2023-04-15T07:56:07;20.30;;;6.32;;
41233;SDS011;26968;42.686;23.352;2023-04-15T07:58:32;14.48;;;6.53;;
41233;SDS011;26968;42.686;23.352;2023-04-15T08:00:58;10.80;;;5.40;;
41233;SDS011;26968;42.686;23.352;2023-04-15T08:03:23;11.50;;;5.40;;
41233;SDS011;26968;42.686;23.352;2023-04-15T08:05:49;8.98;;;5.32;;
41233;SDS011;26968;42.686;23.352;2023-04-15T08:08:14;12.65;;;4.97;;
41233;SDS011;26968;42.686;23.352;2023-04-15T08:10:40;14.30;;;5.47;;
41233;SDS011;26968;42.686;23.352;2023-04-15T08:13:06;9.60;;;4.55;;
41233;SDS011;26968;42.686;23.352;2023-04-15T08:15:32;13.52;;;4.90;;
41233;SDS011;26968;42.686;23.352;2023-04-15T08:17:57;11.18;;;4.82;;
41233;SDS011;26968;42.686;23.352;2023-04-15T08:20:24;10.05;;;4.57;;
41233;SDS011;26968;42.686;23.352;2023-04-15T08:22:50;10.00;;;4.13;;
41233;SDS011;26968;42.686;23.352;2023-04-15T08:25:16;9.48;;;3.95;;
41233;SDS011;26968;42.686;23.352;2023-04-15T08:27:43;8.32;;;3.70;;
41233;SDS011;26968;42.686;23.352;2023-04-15T08:30:08;13.90;;;5.13;;
41233;SDS011;26968;42.686;23.352;2023-04-15T08:32:34;14.10;;;6.75;;
41233;SDS011;26968;42.686;23.352;2023-04-15T08:35:00;12.88;;;5.97;;
41233;SDS011;26968;42.686;23.352;2023-04-15T08:37:25;15.43;;;7.03;;
41233;SDS011;26968;42.686;23.352;2023-04-15T08:39:51;16.40;;;6.50;;
41233;SDS011;26968;42.686;23.352;2023-04-15T08:42:16;12.85;;;5.47;;
41233;SDS011;26968;42.686;23.352;2023-04-15T08:44:47;9.77;;;4.82;;
41233;SDS011;26968;42.686;23.352;2023-04-15T08:47:13;13.32;;;5.00;;
41233;SDS011;26968;42.686;23.352;2023-04-15T08:49:42;14.35;;;4.95;;
41233;SDS011;26968;42.686;23.352;2023-04-15T08:52:08;9.73;;;4.47;;
41233;SDS011;26968;42.686;23.352;2023-04-15T08:54:34;7.88;;;3.75;;
41233;SDS011;26968;42.686;23.352;2023-04-15T08:57:00;12.40;;;3.63;;
41233;SDS011;26968;42.686;23.352;2023-04-15T08:59:27;6.85;;;3.83;;
41233;SDS011;26968;42.686;23.352;2023-04-15T09:01:54;7.90;;;3.83;;
41233;SDS011;26968;42.686;23.352;2023-04-15T09:04:22;11.43;;;4.25;;
41233;SDS011;26968;42.686;23.352;2023-04-15T09:06:47;9.25;;;4.20;;
41233;SDS011;26968;42.686;23.352;2023-04-15T09:09:13;10.07;;;3.10;;
41233;SDS011;26968;42.686;23.352;2023-04-15T09:11:38;8.70;;;2.70;;
41233;SDS011;26968;42.686;23.352;2023-04-15T09:14:04;7.25;;;3.22;;
41233;SDS011;26968;42.686;23.352;2023-04-15T09:16:30;10.63;;;2.92;;
41233;SDS011;26968;42.686;23.352;2023-04-15T09:18:55;13.05;;;3.30;;
41233;SDS011;26968;42.686;23.352;2023-04-15T09:21:21;6.55;;;2.83;;
41233;SDS011;26968;42.686;23.352;2023-04-15T09:23:54;6.70;;;2.55;;
41233;SDS011;26968;42.686;23.352;2023-04-15T09:26:33;8.27;;;3.55;;
41233;SDS011;26968;42.686;23.352;2023-04-15T09:29:04;7.28;;;3.22;;
41233;SDS011;26968;42.686;23.352;2023-04-15T09:31:31;7.75;;;2.35;;
41233;SDS011;26968;42.686;23.352;2023-04-15T09:33:57;7.53;;;2.53;;
41233;SDS011;26968;42.686;23.352;2023-04-15T09:36:22;6.47;;;2.38;;
41233;SDS011;26968;42.686;23.352;2023-04-15T09:38:59;6.38;;;2.75;;
41233;SDS011;26968;42.686;23.352;2023-04-15T09:41:25;5.53;;;2.70;;
41233;SDS011;26968;42.686;23.352;2023-04-15T09:43:51;5.15;;;2.53;;
41233;SDS011;26968;42.686;23.352;2023-04-15T09:46:17;10.55;;;2.42;;
41233;SDS011;26968;42.686;23.352;2023-04-15T09:48:42;8.43;;;2.72;;
41233;SDS011;26968;42.686;23.352;2023-04-15T09:51:08;5.95;;;2.53;;
41233;SDS011;26968;42.686;23.352;2023-04-15T09:53:35;7.45;;;2.60;;
41233;SDS011;26968;42.686;23.352;2023-04-15T09:56:02;6.75;;;1.92;;
41233;SDS011;26968;42.686;23.352;2023-04-15T09:58:28;4.50;;;1.95;;
41233;SDS011;26968;42.686;23.352;2023-04-15T10:00:55;3.35;;;1.63;;
41233;SDS011;26968;42.686;23.352;2023-04-15T10:03:23;7.28;;;2.28;;
41233;SDS011;26968;42.686;23.352;2023-04-15T10:05:54;4.63;;;2.15;;
41233;SDS011;26968;42.686;23.352;2023-04-15T10:08:28;7.07;;;2.10;;
41233;SDS011;26968;42.686;23.352;2023-04-15T10:10:56;5.43;;;2.00;;
41233;SDS011;26968;42.686;23.352;2023-04-15T10:13:24;4.80;;;2.05;;
41233;SDS011;26968;42.686;23.352;2023-04-15T10:15:51;5.07;;;2.00;;
41233;SDS011;26968;42.686;23.352;2023-04-15T10:18:19;8.98;;;1.98;;
41233;SDS011;26968;42.686;23.352;2023-04-15T10:20:47;4.20;;;2.10;;
41233;SDS011;26968;42.686;23.352;2023-04-15T10:23:13;4.82;;;1.85;;
41233;SDS011;26968;42.686;23.352;2023-04-15T10:25:39;5.38;;;1.77;;
41233;SDS011;26968;42.686;23.352;2023-04-15T10:28:06;9.35;;;1.92;;
41233;SDS011;26968;42.686;23.352;2023-04-15T10:30:33;7.20;;;2.28;;
41233;SDS011;26968;42.686;23.352;2023-04-15T10:32:59;4.80;;;1.83;;
41233;SDS011;26968;42.686;23.352;2023-04-15T10:35:28;6.15;;;1.77;;
41233;SDS011;26968;42.686;23.352;2023-04-15T10:37:58;9.82;;;1.83;;
41233;SDS011;26968;42.686;23.352;2023-04-15T10:40:30;7.45;;;1.73;;
41233;SDS011;26968;42.686;23.352;2023-04-15T10:43:01;6.20;;;1.67;;
41233;SDS011;26968;42.686;23.352;2023-04-15T10:45:36;7.07;;;1.65;;
41233;SDS011;26968;42.686;23.352;2023-04-15T10:48:02;8.50;;;1.73;;
41233;SDS011;26968;42.686;23.352;2023-04-15T10:50:31;4.53;;;1.80;;
41233;SDS011;26968;42.686;23.352;2023-04-15T10:52:57;6.43;;;2.17;;
41233;SDS011;26968;42.686;23.352;2023-04-15T10:55:24;4.72;;;1.88;;
41233;SDS011;26968;42.686;23.352;2023-04-15T10:57:59;5.45;;;2.42;;
41233;SDS011;26968;42.686;23.352;2023-04-15T11:00:30;4.13;;;1.73;;
41233;SDS011;26968;42.686;23.352;2023-04-15T11:02:57;5.25;;;2.13;;
41233;SDS011;26968;42.686;23.352;2023-04-15T11:05:48;6.60;;;1.67;;
41233;SDS011;26968;42.686;23.352;2023-04-15T11:18:20;5.45;;;1.60;;
41233;SDS011;26968;42.686;23.352;2023-04-15T11:20:49;7.93;;;1.92;;
41233;SDS011;26968;42.686;23.352;2023-04-15T11:23:26;3.92;;;1.30;;
41233;SDS011;26968;42.686;23.352;2023-04-15T11:25:53;2.67;;;1.27;;
41233;SDS011;26968;42.686;23.352;2023-04-15T11:28:20;6.88;;;1.85;;
41233;SDS011;26968;42.686;23.352;2023-04-15T11:30:51;3.73;;;1.60;;
41233;SDS011;26968;42.686;23.352;2023-04-15T11:33:16;3.58;;;1.40;;
41233;SDS011;26968;42.686;23.352;2023-04-15T11:35:41;6.60;;;1.48;;
41233;SDS011;26968;42.686;23.352;2023-04-15T11:38:08;3.47;;;1.67;;
41233;SDS011;26968;42.686;23.352;2023-04-15T11:40:38;6.95;;;2.13;;
41233;SDS011;26968;42.686;23.352;2023-04-15T11:45:34;5.10;;;1.60;;
41233;SDS011;26968;42.686;23.352;2023-04-15T11:48:10;2.20;;;1.00;;
41233;SDS011;26968;42.686;23.352;2023-04-15T11:50:37;4.72;;;1.55;;
41233;SDS011;26968;42.686;23.352;2023-04-15T11:53:06;5.25;;;1.63;;
41233;SDS011;26968;42.686;23.352;2023-04-15T11:55:46;1.25;;;0.70;;
41233;SDS011;26968;42.686;23.352;2023-04-15T11:58:14;1.70;;;0.80;;
41233;SDS011;26968;42.686;23.352;2023-04-15T12:00:44;3.53;;;0.90;;
41233;SDS011;26968;42.686;23.352;2023-04-15T12:03:26;3.55;;;1.05;;
41233;SDS011;26968;42.686;23.352;2023-04-15T12:16:18;2.83;;;0.77;;
41233;SDS011;26968;42.686;23.352;2023-04-15T12:18:49;2.80;;;0.80;;
41233;SDS011;26968;42.686;23.352;2023-04-15T12:21:19;3.35;;;1.15;;
41233;SDS011;26968;42.686;23.352;2023-04-15T12:23:52;3.42;;;1.00;;
41233;SDS011;26968;42.686;23.352;2023-04-15T12:26:30;3.33;;;0.82;;
41233;SDS011;26968;42.686;23.352;2023-04-15T12:29:17;2.92;;;1.08;;
41233;SDS011;26968;42.686;23.352;2023-04-15T12:31:46;4.35;;;0.77;;
41233;SDS011;26968;42.686;23.352;2023-04-15T12:34:16;3.38;;;0.80;;
41233;SDS011;26968;42.686;23.352;2023-04-15T12:36:42;3.30;;;0.90;;
41233;SDS011;26968;42.686;23.352;2023-04-15T12:39:08;3.78;;;0.90;;
41233;SDS011;26968;42.686;23.352;2023-04-15T12:41:33;4.05;;;1.38;;
41233;SDS011;26968;42.686;23.352;2023-04-15T12:43:59;2.00;;;0.90;;
41233;SDS011;26968;42.686;23.352;2023-04-15T12:46:25;6.00;;;0.82;;
41233;SDS011;26968;42.686;23.352;2023-04-15T12:48:51;2.17;;;0.85;;
41233;SDS011;26968;42.686;23.352;2023-04-15T12:51:17;6.70;;;1.00;;
41233;SDS011;26968;42.686;23.352;2023-04-15T12:53:43;1.15;;;0.90;;
41233;SDS011;26968;42.686;23.352;2023-04-15T12:56:08;4.20;;;1.00;;
41233;SDS011;26968;42.686;23.352;2023-04-15T12:58:34;3.10;;;0.73;;
41233;SDS011;26968;42.686;23.352;2023-04-15T13:01:00;6.63;;;1.13;;
41233;SDS011;26968;42.686;23.352;2023-04-15T13:03:25;2.20;;;0.80;;
41233;SDS011;26968;42.686;23.352;2023-04-15T13:05:51;1.63;;;0.60;;
41233;SDS011;26968;42.686;23.352;2023-04-15T13:08:17;4.97;;;0.98;;
41233;SDS011;26968;42.686;23.352;2023-04-15T13:10:42;5.78;;;1.60;;
41233;SDS011;26968;42.686;23.352;2023-04-15T13:13:08;2.42;;;0.75;;
41233;SDS011;26968;42.686;23.352;2023-04-15T13:15:33;2.83;;;1.00;;
41233;SDS011;26968;42.686;23.352;2023-04-15T13:17:59;3.95;;;0.70;;
41233;SDS011;26968;42.686;23.352;2023-04-15T13:20:25;1.70;;;0.80;;
41233;SDS011;26968;42.686;23.352;2023-04-15T13:22:51;1.50;;;0.60;;
41233;SDS011;26968;42.686;23.352;2023-04-15T13:25:17;5.30;;;1.38;;
41233;SDS011;26968;42.686;23.352;2023-04-15T13:27:43;3.92;;;1.00;;
41233;SDS011;26968;42.686;23.352;2023-04-15T13:30:08;2.33;;;0.68;;
41233;SDS011;26968;42.686;23.352;2023-04-15T13:32:34;3.72;;;1.00;;
41233;SDS011;26968;42.686;23.352;2023-04-15T13:34:59;3.17;;;0.70;;
41233;SDS011;26968;42.686;23.352;2023-04-15T13:37:28;3.55;;;1.10;;
41233;SDS011;26968;42.686;23.352;2023-04-15T13:39:54;3.08;;;0.75;;
41233;SDS011;26968;42.686;23.352;2023-04-15T13:42:20;3.38;;;1.10;;
41233;SDS011;26968;42.686;23.352;2023-04-15T13:44:48;2.30;;;0.93;;
41233;SDS011;26968;42.686;23.352;2023-04-15T13:47:15;3.58;;;0.80;;
41233;SDS011;26968;42.686;23.352;2023-04-15T13:49:41;3.15;;;0.70;;
41233;SDS011;26968;42.686;23.352;2023-04-15T13:52:06;2.67;;;0.60;;
41233;SDS011;26968;42.686;23.352;2023-04-15T13:54:31;2.58;;;0.73;;
41233;SDS011;26968;42.686;23.352;2023-04-15T13:56:57;2.22;;;0.95;;
41233;SDS011;26968;42.686;23.352;2023-04-15T13:59:22;1.77;;;0.80;;
41233;SDS011;26968;42.686;23.352;2023-04-15T14:01:48;2.15;;;0.70;;
41233;SDS011;26968;42.686;23.352;2023-04-15T14:04:14;1.73;;;0.80;;
41233;SDS011;26968;42.686;23.352;2023-04-15T14:06:39;1.75;;;0.88;;
41233;SDS011;26968;42.686;23.352;2023-04-15T14:09:05;2.78;;;0.88;;
41233;SDS011;26968;42.686;23.352;2023-04-15T14:11:30;7.47;;;0.88;;
41233;SDS011;26968;42.686;23.352;2023-04-15T14:13:56;3.80;;;0.90;;
41233;SDS011;26968;42.686;23.352;2023-04-15T14:16:21;2.85;;;1.10;;
41233;SDS011;26968;42.686;23.352;2023-04-15T14:18:47;3.53;;;1.15;;
41233;SDS011;26968;42.686;23.352;2023-04-15T14:21:12;2.00;;;0.75;;
41233;SDS011;26968;42.686;23.352;2023-04-15T14:23:38;2.50;;;0.82;;
41233;SDS011;26968;42.686;23.352;2023-04-15T14:26:03;4.80;;;0.85;;
41233;SDS011;26968;42.686;23.352;2023-04-15T14:28:29;2.58;;;0.70;;
41233;SDS011;26968;42.686;23.352;2023-04-15T14:30:54;4.15;;;0.90;;
41233;SDS011;26968;42.686;23.352;2023-04-15T14:33:20;7.40;;;1.15;;
41233;SDS011;26968;42.686;23.352;2023-04-15T14:35:45;2.10;;;0.90;;
41233;SDS011;26968;42.686;23.352;2023-04-15T14:38:10;2.75;;;0.90;;
41233;SDS011;26968;42.686;23.352;2023-04-15T14:40:36;4.53;;;0.98;;
41233;SDS011;26968;42.686;23.352;2023-04-15T14:43:02;1.75;;;1.00;;
41233;SDS011;26968;42.686;23.352;2023-04-15T14:45:27;2.35;;;0.95;;
41233;SDS011;26968;42.686;23.352;2023-04-15T14:47:54;3.28;;;0.85;;